sensor_id;sensor_type;location;lat;lon;timestamp;P1;durP1;ratioP1;P2;durP2;ratioP2
19778;SDS011;10049;59.306;18.090;2022-12-18T00:01:45;4.60;;;2.50;;
19778;SDS011;10049;59.306;18.090;2022-12-18T00:04:15;4.53;;;2.80;;
19778;SDS011;10049;59.306;18.090;2022-12-18T00:06:43;5.83;;;3.07;;
19778;SDS011;10049;59.306;18.090;2022-12-18T00:09:11;2.40;;;1.70;;
19778;SDS011;10049;59.306;18.090;2022-12-18T00:11:39;7.73;;;3.37;;
19778;SDS011;10049;59.306;18.090;2022-12-18T00:14:08;5.63;;;3.20;;
19778;SDS011;10049;59.306;18.090;2022-12-18T00:16:36;5.53;;;3.03;;
19778;SDS011;10049;59.306;18.090;2022-12-18T00:19:03;4.70;;;3.13;;
19778;SDS011;10049;59.306;18.090;2022-12-18T00:21:33;5.10;;;3.00;;
19778;SDS011;10049;59.306;18.090;2022-12-18T00:24:01;4.97;;;3.03;;
19778;SDS011;10049;59.306;18.090;2022-12-18T00:26:29;5.43;;;3.30;;
19778;SDS011;10049;59.306;18.090;2022-12-18T00:28:57;5.83;;;3.20;;
19778;SDS011;10049;59.306;18.090;2022-12-18T00:31:27;5.53;;;3.30;;
19778;SDS011;10049;59.306;18.090;2022-12-18T00:33:54;6.17;;;3.00;;
19778;SDS011;10049;59.306;18.090;2022-12-18T00:36:23;4.40;;;3.00;;
19778;SDS011;10049;59.306;18.090;2022-12-18T00:38:51;5.57;;;2.97;;
19778;SDS011;10049;59.306;18.090;2022-12-18T00:41:19;4.60;;;2.73;;
19778;SDS011;10049;59.306;18.090;2022-12-18T00:44:00;4.07;;;2.33;;
19778;SDS011;10049;59.306;18.090;2022-12-18T00:46:29;3.43;;;2.30;;
19778;SDS011;10049;59.306;18.090;2022-12-18T00:48:56;3.60;;;2.60;;
19778;SDS011;10049;59.306;18.090;2022-12-18T00:51:24;5.63;;;2.87;;
19778;SDS011;10049;59.306;18.090;2022-12-18T00:53:51;4.57;;;2.73;;
19778;SDS011;10049;59.306;18.090;2022-12-18T00:56:19;4.90;;;2.33;;
19778;SDS011;10049;59.306;18.090;2022-12-18T00:58:46;4.80;;;2.67;;
19778;SDS011;10049;59.306;18.090;2022-12-18T01:01:14;5.93;;;3.20;;
19778;SDS011;10049;59.306;18.090;2022-12-18T01:03:43;6.40;;;2.50;;
19778;SDS011;10049;59.306;18.090;2022-12-18T01:06:12;5.73;;;2.77;;
19778;SDS011;10049;59.306;18.090;2022-12-18T01:08:40;2.20;;;1.63;;
19778;SDS011;10049;59.306;18.090;2022-12-18T01:11:07;4.17;;;2.87;;
19778;SDS011;10049;59.306;18.090;2022-12-18T01:13:35;2.83;;;1.67;;
19778;SDS011;10049;59.306;18.090;2022-12-18T01:16:03;3.37;;;1.73;;
19778;SDS011;10049;59.306;18.090;2022-12-18T01:18:31;4.60;;;2.33;;
19778;SDS011;10049;59.306;18.090;2022-12-18T01:21:00;5.67;;;2.47;;
19778;SDS011;10049;59.306;18.090;2022-12-18T01:23:28;5.67;;;2.40;;
19778;SDS011;10049;59.306;18.090;2022-12-18T01:25:55;2.73;;;2.00;;
19778;SDS011;10049;59.306;18.090;2022-12-18T01:28:23;4.13;;;2.50;;
19778;SDS011;10049;59.306;18.090;2022-12-18T01:30:50;4.00;;;2.53;;
19778;SDS011;10049;59.306;18.090;2022-12-18T01:33:17;3.60;;;2.47;;
19778;SDS011;10049;59.306;18.090;2022-12-18T01:35:45;4.20;;;2.73;;
19778;SDS011;10049;59.306;18.090;2022-12-18T01:38:14;6.17;;;3.07;;
19778;SDS011;10049;59.306;18.090;2022-12-18T01:40:41;6.17;;;2.80;;
19778;SDS011;10049;59.306;18.090;2022-12-18T01:43:08;5.67;;;2.77;;
19778;SDS011;10049;59.306;18.090;2022-12-18T01:45:36;6.37;;;3.07;;
19778;SDS011;10049;59.306;18.090;2022-12-18T01:48:04;4.13;;;2.73;;
19778;SDS011;10049;59.306;18.090;2022-12-18T01:50:34;6.23;;;2.47;;
19778;SDS011;10049;59.306;18.090;2022-12-18T01:53:05;6.80;;;2.90;;
19778;SDS011;10049;59.306;18.090;2022-12-18T01:55:36;5.23;;;3.00;;
19778;SDS011;10049;59.306;18.090;2022-12-18T01:58:04;6.43;;;2.90;;
19778;SDS011;10049;59.306;18.090;2022-12-18T02:00:32;4.60;;;2.33;;
19778;SDS011;10049;59.306;18.090;2022-12-18T02:03:00;4.53;;;2.67;;
19778;SDS011;10049;59.306;18.090;2022-12-18T02:05:30;5.37;;;2.20;;
19778;SDS011;10049;59.306;18.090;2022-12-18T02:08:03;4.63;;;2.80;;
19778;SDS011;10049;59.306;18.090;2022-12-18T02:10:38;7.37;;;2.70;;
19778;SDS011;10049;59.306;18.090;2022-12-18T02:13:11;4.83;;;2.73;;
19778;SDS011;10049;59.306;18.090;2022-12-18T02:15:40;4.27;;;2.97;;
19778;SDS011;10049;59.306;18.090;2022-12-18T02:18:10;4.97;;;3.07;;
19778;SDS011;10049;59.306;18.090;2022-12-18T02:20:40;4.67;;;3.03;;
19778;SDS011;10049;59.306;18.090;2022-12-18T02:23:11;7.70;;;2.57;;
19778;SDS011;10049;59.306;18.090;2022-12-18T02:28:51;5.20;;;2.60;;
19778;SDS011;10049;59.306;18.090;2022-12-18T02:31:21;3.80;;;2.27;;
19778;SDS011;10049;59.306;18.090;2022-12-18T02:33:50;5.03;;;2.67;;
19778;SDS011;10049;59.306;18.090;2022-12-18T02:36:23;5.07;;;2.83;;
19778;SDS011;10049;59.306;18.090;2022-12-18T02:38:51;3.57;;;2.47;;
19778;SDS011;10049;59.306;18.090;2022-12-18T02:41:19;3.87;;;2.70;;
19778;SDS011;10049;59.306;18.090;2022-12-18T02:43:53;5.30;;;2.33;;
19778;SDS011;10049;59.306;18.090;2022-12-18T02:46:25;3.67;;;2.10;;
19778;SDS011;10049;59.306;18.090;2022-12-18T02:48:53;2.73;;;2.10;;
19778;SDS011;10049;59.306;18.090;2022-12-18T02:51:23;5.50;;;2.53;;
19778;SDS011;10049;59.306;18.090;2022-12-18T02:53:56;5.03;;;2.70;;
19778;SDS011;10049;59.306;18.090;2022-12-18T02:56:26;4.43;;;2.50;;
19778;SDS011;10049;59.306;18.090;2022-12-18T02:58:58;5.90;;;3.10;;
19778;SDS011;10049;59.306;18.090;2022-12-18T03:01:28;3.60;;;2.73;;
19778;SDS011;10049;59.306;18.090;2022-12-18T03:03:57;5.57;;;3.27;;
19778;SDS011;10049;59.306;18.090;2022-12-18T03:06:28;5.00;;;2.63;;
19778;SDS011;10049;59.306;18.090;2022-12-18T03:08:56;7.30;;;2.80;;
19778;SDS011;10049;59.306;18.090;2022-12-18T03:11:25;5.33;;;2.90;;
19778;SDS011;10049;59.306;18.090;2022-12-18T03:14:10;5.30;;;2.67;;
19778;SDS011;10049;59.306;18.090;2022-12-18T03:16:39;3.67;;;2.50;;
19778;SDS011;10049;59.306;18.090;2022-12-18T03:19:11;4.20;;;2.50;;
19778;SDS011;10049;59.306;18.090;2022-12-18T03:21:40;4.90;;;2.70;;
19778;SDS011;10049;59.306;18.090;2022-12-18T03:24:09;4.10;;;2.83;;
19778;SDS011;10049;59.306;18.090;2022-12-18T03:26:39;2.83;;;2.10;;
19778;SDS011;10049;59.306;18.090;2022-12-18T03:29:08;2.30;;;2.03;;
19778;SDS011;10049;59.306;18.090;2022-12-18T03:31:38;2.60;;;1.97;;
19778;SDS011;10049;59.306;18.090;2022-12-18T03:34:09;6.00;;;2.43;;
19778;SDS011;10049;59.306;18.090;2022-12-18T03:36:36;3.73;;;1.83;;
19778;SDS011;10049;59.306;18.090;2022-12-18T03:39:05;5.33;;;2.30;;
19778;SDS011;10049;59.306;18.090;2022-12-18T03:41:33;5.60;;;2.40;;
19778;SDS011;10049;59.306;18.090;2022-12-18T03:44:05;4.00;;;2.40;;
19778;SDS011;10049;59.306;18.090;2022-12-18T03:46:41;3.87;;;2.40;;
19778;SDS011;10049;59.306;18.090;2022-12-18T03:49:09;5.17;;;2.20;;
19778;SDS011;10049;59.306;18.090;2022-12-18T03:51:39;3.90;;;2.27;;
19778;SDS011;10049;59.306;18.090;2022-12-18T03:54:07;7.20;;;2.30;;
19778;SDS011;10049;59.306;18.090;2022-12-18T03:56:37;3.83;;;2.00;;
19778;SDS011;10049;59.306;18.090;2022-12-18T03:59:05;4.57;;;2.13;;
19778;SDS011;10049;59.306;18.090;2022-12-18T04:01:35;3.33;;;2.40;;
19778;SDS011;10049;59.306;18.090;2022-12-18T04:04:06;3.20;;;2.30;;
19778;SDS011;10049;59.306;18.090;2022-12-18T04:06:35;4.63;;;2.43;;
19778;SDS011;10049;59.306;18.090;2022-12-18T04:09:03;3.63;;;2.40;;
19778;SDS011;10049;59.306;18.090;2022-12-18T04:11:31;4.77;;;2.37;;
19778;SDS011;10049;59.306;18.090;2022-12-18T04:13:58;3.13;;;1.90;;
19778;SDS011;10049;59.306;18.090;2022-12-18T04:16:26;3.80;;;1.83;;
19778;SDS011;10049;59.306;18.090;2022-12-18T04:18:54;2.80;;;1.57;;
19778;SDS011;10049;59.306;18.090;2022-12-18T04:21:23;4.70;;;2.30;;
19778;SDS011;10049;59.306;18.090;2022-12-18T04:23:51;3.23;;;2.33;;
19778;SDS011;10049;59.306;18.090;2022-12-18T04:26:18;4.10;;;2.40;;
19778;SDS011;10049;59.306;18.090;2022-12-18T04:28:45;3.57;;;2.23;;
19778;SDS011;10049;59.306;18.090;2022-12-18T04:31:13;3.53;;;2.10;;
19778;SDS011;10049;59.306;18.090;2022-12-18T04:33:40;3.17;;;2.23;;
19778;SDS011;10049;59.306;18.090;2022-12-18T04:36:08;4.40;;;2.60;;
19778;SDS011;10049;59.306;18.090;2022-12-18T04:38:39;3.97;;;2.37;;
19778;SDS011;10049;59.306;18.090;2022-12-18T04:41:06;2.83;;;1.90;;
19778;SDS011;10049;59.306;18.090;2022-12-18T04:43:33;3.83;;;2.03;;
19778;SDS011;10049;59.306;18.090;2022-12-18T04:46:02;3.67;;;2.23;;
19778;SDS011;10049;59.306;18.090;2022-12-18T04:48:29;2.73;;;1.80;;
19778;SDS011;10049;59.306;18.090;2022-12-18T04:50:57;5.27;;;2.40;;
19778;SDS011;10049;59.306;18.090;2022-12-18T04:53:24;2.73;;;2.03;;
19778;SDS011;10049;59.306;18.090;2022-12-18T04:56:03;4.63;;;2.10;;
19778;SDS011;10049;59.306;18.090;2022-12-18T04:58:30;4.63;;;2.47;;
19778;SDS011;10049;59.306;18.090;2022-12-18T05:00:57;3.97;;;2.50;;
19778;SDS011;10049;59.306;18.090;2022-12-18T05:03:26;3.73;;;2.17;;
19778;SDS011;10049;59.306;18.090;2022-12-18T05:05:53;3.80;;;2.17;;
19778;SDS011;10049;59.306;18.090;2022-12-18T05:08:21;4.60;;;2.13;;
19778;SDS011;10049;59.306;18.090;2022-12-18T05:10:48;3.73;;;2.37;;
19778;SDS011;10049;59.306;18.090;2022-12-18T05:13:17;3.23;;;2.10;;
19778;SDS011;10049;59.306;18.090;2022-12-18T05:15:50;3.20;;;2.43;;
19778;SDS011;10049;59.306;18.090;2022-12-18T05:18:18;2.87;;;1.83;;
19778;SDS011;10049;59.306;18.090;2022-12-18T05:20:46;2.43;;;1.63;;
19778;SDS011;10049;59.306;18.090;2022-12-18T05:23:13;3.67;;;1.63;;
19778;SDS011;10049;59.306;18.090;2022-12-18T05:25:41;4.93;;;2.00;;
19778;SDS011;10049;59.306;18.090;2022-12-18T05:28:08;2.70;;;1.80;;
19778;SDS011;10049;59.306;18.090;2022-12-18T05:30:40;5.03;;;2.30;;
19778;SDS011;10049;59.306;18.090;2022-12-18T05:33:07;6.47;;;2.10;;
19778;SDS011;10049;59.306;18.090;2022-12-18T05:35:35;5.07;;;2.20;;
19778;SDS011;10049;59.306;18.090;2022-12-18T05:38:02;5.10;;;2.73;;
19778;SDS011;10049;59.306;18.090;2022-12-18T05:40:30;2.40;;;1.23;;
19778;SDS011;10049;59.306;18.090;2022-12-18T05:42:57;2.83;;;2.10;;
19778;SDS011;10049;59.306;18.090;2022-12-18T05:45:24;4.33;;;2.27;;
19778;SDS011;10049;59.306;18.090;2022-12-18T05:47:53;3.23;;;2.07;;
19778;SDS011;10049;59.306;18.090;2022-12-18T05:50:21;3.20;;;1.83;;
19778;SDS011;10049;59.306;18.090;2022-12-18T05:52:48;1.73;;;1.30;;
19778;SDS011;10049;59.306;18.090;2022-12-18T05:55:15;3.33;;;2.10;;
19778;SDS011;10049;59.306;18.090;2022-12-18T05:57:43;3.47;;;1.57;;
19778;SDS011;10049;59.306;18.090;2022-12-18T06:00:11;2.90;;;1.90;;
19778;SDS011;10049;59.306;18.090;2022-12-18T06:02:38;4.00;;;2.20;;
19778;SDS011;10049;59.306;18.090;2022-12-18T06:05:09;3.27;;;2.03;;
19778;SDS011;10049;59.306;18.090;2022-12-18T06:07:36;2.40;;;1.83;;
19778;SDS011;10049;59.306;18.090;2022-12-18T06:10:04;3.50;;;2.27;;
19778;SDS011;10049;59.306;18.090;2022-12-18T06:12:32;2.90;;;1.50;;
19778;SDS011;10049;59.306;18.090;2022-12-18T06:14:59;4.07;;;2.33;;
19778;SDS011;10049;59.306;18.090;2022-12-18T06:17:27;4.03;;;2.07;;
19778;SDS011;10049;59.306;18.090;2022-12-18T06:19:55;3.13;;;1.90;;
19778;SDS011;10049;59.306;18.090;2022-12-18T06:22:24;4.13;;;2.07;;
19778;SDS011;10049;59.306;18.090;2022-12-18T06:24:51;3.20;;;2.03;;
19778;SDS011;10049;59.306;18.090;2022-12-18T06:27:19;3.27;;;2.23;;
19778;SDS011;10049;59.306;18.090;2022-12-18T06:29:47;3.83;;;2.13;;
19778;SDS011;10049;59.306;18.090;2022-12-18T06:32:15;2.13;;;1.77;;
19778;SDS011;10049;59.306;18.090;2022-12-18T06:34:42;3.27;;;1.87;;
19778;SDS011;10049;59.306;18.090;2022-12-18T06:37:10;3.63;;;2.10;;
19778;SDS011;10049;59.306;18.090;2022-12-18T06:39:39;4.23;;;2.27;;
19778;SDS011;10049;59.306;18.090;2022-12-18T06:42:06;3.80;;;2.43;;
19778;SDS011;10049;59.306;18.090;2022-12-18T06:44:34;4.23;;;2.20;;
19778;SDS011;10049;59.306;18.090;2022-12-18T06:47:02;3.63;;;2.00;;
19778;SDS011;10049;59.306;18.090;2022-12-18T06:49:29;7.17;;;2.07;;
19778;SDS011;10049;59.306;18.090;2022-12-18T06:51:57;3.70;;;2.10;;
19778;SDS011;10049;59.306;18.090;2022-12-18T06:54:27;3.97;;;1.90;;
19778;SDS011;10049;59.306;18.090;2022-12-18T06:56:56;4.47;;;2.20;;
19778;SDS011;10049;59.306;18.090;2022-12-18T06:59:23;4.17;;;1.90;;
19778;SDS011;10049;59.306;18.090;2022-12-18T07:01:51;3.30;;;2.10;;
19778;SDS011;10049;59.306;18.090;2022-12-18T07:04:18;4.43;;;2.37;;
19778;SDS011;10049;59.306;18.090;2022-12-18T07:06:45;3.60;;;2.10;;
19778;SDS011;10049;59.306;18.090;2022-12-18T07:09:13;4.70;;;1.93;;
19778;SDS011;10049;59.306;18.090;2022-12-18T07:11:40;3.23;;;2.10;;
19778;SDS011;10049;59.306;18.090;2022-12-18T07:14:09;4.33;;;1.80;;
19778;SDS011;10049;59.306;18.090;2022-12-18T07:16:37;3.47;;;2.33;;
19778;SDS011;10049;59.306;18.090;2022-12-18T07:19:04;4.17;;;2.30;;
19778;SDS011;10049;59.306;18.090;2022-12-18T07:21:32;2.80;;;2.07;;
19778;SDS011;10049;59.306;18.090;2022-12-18T07:23:59;4.50;;;2.23;;
19778;SDS011;10049;59.306;18.090;2022-12-18T07:26:26;2.50;;;1.57;;
19778;SDS011;10049;59.306;18.090;2022-12-18T07:28:54;3.27;;;1.90;;
19778;SDS011;10049;59.306;18.090;2022-12-18T07:31:25;4.00;;;2.20;;
19778;SDS011;10049;59.306;18.090;2022-12-18T07:33:53;3.80;;;2.03;;
19778;SDS011;10049;59.306;18.090;2022-12-18T07:36:21;4.50;;;2.33;;
19778;SDS011;10049;59.306;18.090;2022-12-18T07:38:50;3.20;;;2.20;;
19778;SDS011;10049;59.306;18.090;2022-12-18T07:41:18;3.83;;;2.33;;
19778;SDS011;10049;59.306;18.090;2022-12-18T07:43:45;3.30;;;2.57;;
19778;SDS011;10049;59.306;18.090;2022-12-18T07:46:13;3.27;;;2.10;;
19778;SDS011;10049;59.306;18.090;2022-12-18T07:48:42;3.97;;;2.70;;
19778;SDS011;10049;59.306;18.090;2022-12-18T07:51:09;4.40;;;2.40;;
19778;SDS011;10049;59.306;18.090;2022-12-18T07:53:37;4.00;;;2.40;;
19778;SDS011;10049;59.306;18.090;2022-12-18T07:56:06;3.27;;;2.03;;
19778;SDS011;10049;59.306;18.090;2022-12-18T07:58:34;4.97;;;2.57;;
19778;SDS011;10049;59.306;18.090;2022-12-18T08:01:02;5.10;;;2.53;;
19778;SDS011;10049;59.306;18.090;2022-12-18T08:03:30;4.40;;;2.50;;
19778;SDS011;10049;59.306;18.090;2022-12-18T08:06:00;4.32;;;2.72;;
19778;SDS011;10049;59.306;18.090;2022-12-18T08:08:27;4.33;;;2.60;;
19778;SDS011;10049;59.306;18.090;2022-12-18T08:10:55;4.80;;;2.30;;
19778;SDS011;10049;59.306;18.090;2022-12-18T08:13:23;4.10;;;2.30;;
19778;SDS011;10049;59.306;18.090;2022-12-18T08:15:55;4.87;;;2.13;;
19778;SDS011;10049;59.306;18.090;2022-12-18T08:18:23;5.33;;;2.60;;
19778;SDS011;10049;59.306;18.090;2022-12-18T08:20:50;3.70;;;2.40;;
19778;SDS011;10049;59.306;18.090;2022-12-18T08:23:19;2.80;;;1.93;;
19778;SDS011;10049;59.306;18.090;2022-12-18T08:25:47;3.93;;;2.60;;
19778;SDS011;10049;59.306;18.090;2022-12-18T08:28:15;4.37;;;2.80;;
19778;SDS011;10049;59.306;18.090;2022-12-18T08:30:42;4.40;;;2.60;;
19778;SDS011;10049;59.306;18.090;2022-12-18T08:33:09;4.83;;;2.50;;
19778;SDS011;10049;59.306;18.090;2022-12-18T08:35:37;5.30;;;2.57;;
19778;SDS011;10049;59.306;18.090;2022-12-18T08:38:04;5.97;;;2.17;;
19778;SDS011;10049;59.306;18.090;2022-12-18T08:40:33;4.93;;;2.60;;
19778;SDS011;10049;59.306;18.090;2022-12-18T08:43:01;3.23;;;2.33;;
19778;SDS011;10049;59.306;18.090;2022-12-18T08:45:46;4.40;;;2.40;;
19778;SDS011;10049;59.306;18.090;2022-12-18T08:48:13;4.50;;;2.50;;
19778;SDS011;10049;59.306;18.090;2022-12-18T08:50:41;7.30;;;3.00;;
19778;SDS011;10049;59.306;18.090;2022-12-18T08:53:08;2.67;;;1.83;;
19778;SDS011;10049;59.306;18.090;2022-12-18T08:55:38;4.70;;;2.77;;
19778;SDS011;10049;59.306;18.090;2022-12-18T08:58:06;6.07;;;3.20;;
19778;SDS011;10049;59.306;18.090;2022-12-18T09:00:33;3.73;;;2.33;;
19778;SDS011;10049;59.306;18.090;2022-12-18T09:03:01;4.00;;;2.40;;
19778;SDS011;10049;59.306;18.090;2022-12-18T09:05:28;3.77;;;2.73;;
19778;SDS011;10049;59.306;18.090;2022-12-18T09:07:55;4.97;;;2.30;;
19778;SDS011;10049;59.306;18.090;2022-12-18T09:10:23;4.43;;;2.70;;
19778;SDS011;10049;59.306;18.090;2022-12-18T09:12:52;4.27;;;2.40;;
19778;SDS011;10049;59.306;18.090;2022-12-18T09:15:21;3.57;;;2.20;;
19778;SDS011;10049;59.306;18.090;2022-12-18T09:17:48;4.07;;;2.60;;
19778;SDS011;10049;59.306;18.090;2022-12-18T09:20:17;4.83;;;2.50;;
19778;SDS011;10049;59.306;18.090;2022-12-18T09:22:45;3.53;;;2.43;;
19778;SDS011;10049;59.306;18.090;2022-12-18T09:25:12;4.47;;;2.57;;
19778;SDS011;10049;59.306;18.090;2022-12-18T09:27:40;4.63;;;2.90;;
19778;SDS011;10049;59.306;18.090;2022-12-18T09:30:10;3.67;;;2.20;;
19778;SDS011;10049;59.306;18.090;2022-12-18T09:32:37;4.40;;;2.27;;
19778;SDS011;10049;59.306;18.090;2022-12-18T09:35:05;2.13;;;1.60;;
19778;SDS011;10049;59.306;18.090;2022-12-18T09:37:33;3.03;;;1.90;;
19778;SDS011;10049;59.306;18.090;2022-12-18T09:40:00;3.07;;;2.20;;
19778;SDS011;10049;59.306;18.090;2022-12-18T09:42:28;2.90;;;1.83;;
19778;SDS011;10049;59.306;18.090;2022-12-18T09:44:56;3.10;;;1.80;;
19778;SDS011;10049;59.306;18.090;2022-12-18T09:47:25;4.00;;;2.20;;
19778;SDS011;10049;59.306;18.090;2022-12-18T09:49:56;3.93;;;2.30;;
19778;SDS011;10049;59.306;18.090;2022-12-18T09:52:26;3.03;;;2.07;;
19778;SDS011;10049;59.306;18.090;2022-12-18T09:54:55;5.67;;;2.03;;
19778;SDS011;10049;59.306;18.090;2022-12-18T09:57:25;4.10;;;2.00;;
19778;SDS011;10049;59.306;18.090;2022-12-18T09:59:54;2.90;;;1.53;;
19778;SDS011;10049;59.306;18.090;2022-12-18T10:02:23;3.40;;;2.37;;
19778;SDS011;10049;59.306;18.090;2022-12-18T10:04:57;4.00;;;2.50;;
19778;SDS011;10049;59.306;18.090;2022-12-18T10:07:29;4.30;;;2.40;;
19778;SDS011;10049;59.306;18.090;2022-12-18T10:09:58;3.33;;;2.00;;
19778;SDS011;10049;59.306;18.090;2022-12-18T10:12:29;2.23;;;1.50;;
19778;SDS011;10049;59.306;18.090;2022-12-18T10:15:00;3.60;;;2.15;;
19778;SDS011;10049;59.306;18.090;2022-12-18T10:17:32;1.73;;;1.33;;
19778;SDS011;10049;59.306;18.090;2022-12-18T10:20:04;2.40;;;1.43;;
19778;SDS011;10049;59.306;18.090;2022-12-18T10:22:36;4.30;;;2.15;;
19778;SDS011;10049;59.306;18.090;2022-12-18T10:25:06;2.90;;;1.93;;
19778;SDS011;10049;59.306;18.090;2022-12-18T10:27:41;3.03;;;2.00;;
19778;SDS011;10049;59.306;18.090;2022-12-18T10:30:12;3.87;;;2.30;;
19778;SDS011;10049;59.306;18.090;2022-12-18T10:32:39;3.33;;;2.10;;
19778;SDS011;10049;59.306;18.090;2022-12-18T10:35:10;3.43;;;2.20;;
19778;SDS011;10049;59.306;18.090;2022-12-18T10:40:24;4.40;;;2.53;;
19778;SDS011;10049;59.306;18.090;2022-12-18T10:43:03;2.10;;;1.40;;
19778;SDS011;10049;59.306;18.090;2022-12-18T10:45:30;3.10;;;2.13;;
19778;SDS011;10049;59.306;18.090;2022-12-18T10:47:58;5.33;;;1.90;;
19778;SDS011;10049;59.306;18.090;2022-12-18T10:50:28;4.10;;;2.17;;
19778;SDS011;10049;59.306;18.090;2022-12-18T10:52:57;2.17;;;1.80;;
19778;SDS011;10049;59.306;18.090;2022-12-18T10:55:26;4.73;;;2.30;;
19778;SDS011;10049;59.306;18.090;2022-12-18T10:57:54;6.77;;;2.30;;
19778;SDS011;10049;59.306;18.090;2022-12-18T11:00:28;4.93;;;2.27;;
19778;SDS011;10049;59.306;18.090;2022-12-18T11:02:56;3.40;;;2.30;;
19778;SDS011;10049;59.306;18.090;2022-12-18T11:05:29;5.03;;;2.00;;
19778;SDS011;10049;59.306;18.090;2022-12-18T11:07:58;5.07;;;2.20;;
19778;SDS011;10049;59.306;18.090;2022-12-18T11:10:28;2.20;;;1.63;;
19778;SDS011;10049;59.306;18.090;2022-12-18T11:12:56;4.50;;;2.27;;
19778;SDS011;10049;59.306;18.090;2022-12-18T11:15:26;4.47;;;2.63;;
19778;SDS011;10049;59.306;18.090;2022-12-18T11:17:54;3.57;;;2.27;;
19778;SDS011;10049;59.306;18.090;2022-12-18T11:20:29;4.83;;;2.07;;
19778;SDS011;10049;59.306;18.090;2022-12-18T11:22:58;2.67;;;2.00;;
19778;SDS011;10049;59.306;18.090;2022-12-18T11:25:29;3.57;;;1.90;;
19778;SDS011;10049;59.306;18.090;2022-12-18T11:27:58;2.77;;;1.73;;
19778;SDS011;10049;59.306;18.090;2022-12-18T11:30:27;3.30;;;1.63;;
19778;SDS011;10049;59.306;18.090;2022-12-18T11:32:56;2.77;;;1.90;;
19778;SDS011;10049;59.306;18.090;2022-12-18T11:35:32;1.83;;;1.40;;
19778;SDS011;10049;59.306;18.090;2022-12-18T11:38:04;4.00;;;2.45;;
19778;SDS011;10049;59.306;18.090;2022-12-18T11:40:34;3.60;;;1.97;;
19778;SDS011;10049;59.306;18.090;2022-12-18T11:43:04;3.13;;;1.67;;
19778;SDS011;10049;59.306;18.090;2022-12-18T11:45:34;3.40;;;1.73;;
19778;SDS011;10049;59.306;18.090;2022-12-18T11:48:03;3.88;;;1.85;;
19778;SDS011;10049;59.306;18.090;2022-12-18T11:50:33;4.73;;;2.30;;
19778;SDS011;10049;59.306;18.090;2022-12-18T11:53:09;3.83;;;2.37;;
19778;SDS011;10049;59.306;18.090;2022-12-18T11:55:39;2.97;;;2.00;;
19778;SDS011;10049;59.306;18.090;2022-12-18T11:58:11;3.77;;;1.93;;
19778;SDS011;10049;59.306;18.090;2022-12-18T12:00:40;4.20;;;2.03;;
19778;SDS011;10049;59.306;18.090;2022-12-18T12:03:21;2.90;;;2.00;;
19778;SDS011;10049;59.306;18.090;2022-12-18T12:05:56;2.73;;;1.67;;
19778;SDS011;10049;59.306;18.090;2022-12-18T12:08:28;3.97;;;2.23;;
19778;SDS011;10049;59.306;18.090;2022-12-18T12:10:58;2.85;;;1.60;;
19778;SDS011;10049;59.306;18.090;2022-12-18T12:13:32;3.60;;;2.10;;
19778;SDS011;10049;59.306;18.090;2022-12-18T12:16:12;3.22;;;2.00;;
19778;SDS011;10049;59.306;18.090;2022-12-18T12:18:46;2.53;;;1.83;;
19778;SDS011;10049;59.306;18.090;2022-12-18T12:21:18;2.07;;;1.40;;
19778;SDS011;10049;59.306;18.090;2022-12-18T12:23:52;3.00;;;2.20;;
19778;SDS011;10049;59.306;18.090;2022-12-18T12:26:23;2.97;;;1.80;;
19778;SDS011;10049;59.306;18.090;2022-12-18T12:29:00;3.28;;;2.00;;
19778;SDS011;10049;59.306;18.090;2022-12-18T12:31:32;3.67;;;2.20;;
19778;SDS011;10049;59.306;18.090;2022-12-18T12:34:04;4.70;;;2.20;;
19778;SDS011;10049;59.306;18.090;2022-12-18T12:36:37;4.25;;;2.22;;
19778;SDS011;10049;59.306;18.090;2022-12-18T12:39:10;3.67;;;2.35;;
19778;SDS011;10049;59.306;18.090;2022-12-18T12:41:39;2.30;;;1.53;;
19778;SDS011;10049;59.306;18.090;2022-12-18T12:44:26;3.77;;;2.07;;
19778;SDS011;10049;59.306;18.090;2022-12-18T12:46:55;6.27;;;2.13;;
19778;SDS011;10049;59.306;18.090;2022-12-18T12:49:25;4.00;;;1.83;;
19778;SDS011;10049;59.306;18.090;2022-12-18T12:51:54;1.73;;;1.23;;
19778;SDS011;10049;59.306;18.090;2022-12-18T12:54:25;4.87;;;2.20;;
19778;SDS011;10049;59.306;18.090;2022-12-18T12:56:59;2.87;;;2.00;;
19778;SDS011;10049;59.306;18.090;2022-12-18T12:59:30;4.63;;;1.60;;
19778;SDS011;10049;59.306;18.090;2022-12-18T13:01:59;4.40;;;2.20;;
19778;SDS011;10049;59.306;18.090;2022-12-18T13:04:31;1.40;;;1.07;;
19778;SDS011;10049;59.306;18.090;2022-12-18T13:07:03;3.33;;;1.73;;
19778;SDS011;10049;59.306;18.090;2022-12-18T13:09:34;2.10;;;1.47;;
19778;SDS011;10049;59.306;18.090;2022-12-18T13:12:02;3.08;;;2.08;;
19778;SDS011;10049;59.306;18.090;2022-12-18T13:14:47;4.37;;;2.10;;
19778;SDS011;10049;59.306;18.090;2022-12-18T13:17:26;3.67;;;1.73;;
19778;SDS011;10049;59.306;18.090;2022-12-18T13:20:03;4.60;;;1.47;;
19778;SDS011;10049;59.306;18.090;2022-12-18T13:22:32;2.47;;;1.33;;
19778;SDS011;10049;59.306;18.090;2022-12-18T13:25:17;3.90;;;1.60;;
19778;SDS011;10049;59.306;18.090;2022-12-18T13:30:49;4.47;;;1.80;;
19778;SDS011;10049;59.306;18.090;2022-12-18T13:36:02;3.60;;;2.10;;
19778;SDS011;10049;59.306;18.090;2022-12-18T13:38:36;2.60;;;1.63;;
19778;SDS011;10049;59.306;18.090;2022-12-18T13:41:14;3.08;;;1.50;;
19778;SDS011;10049;59.306;18.090;2022-12-18T13:43:48;3.45;;;1.70;;
19778;SDS011;10049;59.306;18.090;2022-12-18T13:46:20;2.40;;;1.30;;
19778;SDS011;10049;59.306;18.090;2022-12-18T13:48:49;3.35;;;1.77;;
19778;SDS011;10049;59.306;18.090;2022-12-18T13:51:17;4.00;;;1.73;;
19778;SDS011;10049;59.306;18.090;2022-12-18T13:53:48;3.42;;;1.85;;
19778;SDS011;10049;59.306;18.090;2022-12-18T13:56:21;3.17;;;1.80;;
19778;SDS011;10049;59.306;18.090;2022-12-18T13:59:03;3.43;;;1.40;;
19778;SDS011;10049;59.306;18.090;2022-12-18T14:01:31;3.27;;;1.70;;
19778;SDS011;10049;59.306;18.090;2022-12-18T14:04:08;2.90;;;1.40;;
19778;SDS011;10049;59.306;18.090;2022-12-18T14:06:36;3.05;;;1.67;;
19778;SDS011;10049;59.306;18.090;2022-12-18T14:09:04;4.00;;;1.70;;
19778;SDS011;10049;59.306;18.090;2022-12-18T14:11:34;2.63;;;1.60;;
19778;SDS011;10049;59.306;18.090;2022-12-18T14:14:02;3.80;;;1.88;;
19778;SDS011;10049;59.306;18.090;2022-12-18T14:16:32;3.53;;;1.67;;
19778;SDS011;10049;59.306;18.090;2022-12-18T14:19:01;2.42;;;1.40;;
19778;SDS011;10049;59.306;18.090;2022-12-18T14:21:29;2.92;;;1.17;;
19778;SDS011;10049;59.306;18.090;2022-12-18T14:24:04;2.65;;;1.70;;
19778;SDS011;10049;59.306;18.090;2022-12-18T14:26:32;3.95;;;1.60;;
19778;SDS011;10049;59.306;18.090;2022-12-18T14:29:01;2.78;;;1.50;;
19778;SDS011;10049;59.306;18.090;2022-12-18T14:31:44;1.27;;;1.02;;
19778;SDS011;10049;59.306;18.090;2022-12-18T14:34:14;2.67;;;1.50;;
19778;SDS011;10049;59.306;18.090;2022-12-18T14:36:44;2.75;;;1.60;;
19778;SDS011;10049;59.306;18.090;2022-12-18T14:39:20;4.27;;;1.30;;
19778;SDS011;10049;59.306;18.090;2022-12-18T14:41:48;2.65;;;0.98;;
19778;SDS011;10049;59.306;18.090;2022-12-18T14:44:17;0.97;;;0.80;;
19778;SDS011;10049;59.306;18.090;2022-12-18T14:46:46;1.00;;;0.90;;
19778;SDS011;10049;59.306;18.090;2022-12-18T14:49:18;1.73;;;1.33;;
19778;SDS011;10049;59.306;18.090;2022-12-18T14:51:48;5.68;;;1.50;;
19778;SDS011;10049;59.306;18.090;2022-12-18T14:54:16;2.40;;;0.87;;
19778;SDS011;10049;59.306;18.090;2022-12-18T14:56:45;2.33;;;1.58;;
19778;SDS011;10049;59.306;18.090;2022-12-18T14:59:13;3.27;;;1.00;;